createdAt,value
2022-09-02T00:00:01.074Z,19.01
2022-09-02T00:01:01.062Z,19.01
2022-09-02T00:02:01.225Z,19.01
2022-09-02T00:03:01.207Z,18.99
2022-09-02T00:04:01.022Z,19.01
2022-09-02T00:05:01.011Z,19.01
2022-09-02T00:06:00.998Z,18.99
2022-09-02T00:07:00.986Z,18.98
2022-09-02T00:08:00.975Z,18.99
2022-09-02T00:09:00.964Z,18.98
2022-09-02T00:10:00.957Z,18.99
2022-09-02T00:11:00.934Z,18.98
2022-09-02T00:12:00.920Z,18.99
2022-09-02T00:13:00.909Z,18.98
2022-09-02T00:14:00.895Z,18.98
2022-09-02T00:15:00.885Z,18.98
2022-09-02T00:16:00.868Z,18.97
2022-09-02T00:17:01.129Z,18.97
2022-09-02T00:18:00.843Z,18.97
2022-09-02T00:19:00.847Z,18.98
2022-09-02T00:20:00.820Z,18.97
2022-09-02T00:21:00.808Z,18.97
2022-09-02T00:22:00.793Z,18.95
2022-09-02T00:23:00.782Z,18.95
2022-09-02T00:24:00.771Z,18.95
2022-09-02T00:25:00.757Z,18.97
2022-09-02T00:26:00.742Z,18.97
2022-09-02T00:27:00.730Z,18.97
2022-09-02T00:28:00.720Z,18.97
2022-09-02T00:29:00.706Z,18.97
2022-09-02T00:30:00.690Z,18.95
2022-09-02T00:31:00.680Z,18.95
2022-09-02T00:32:00.703Z,18.95
2022-09-02T00:33:00.651Z,18.94
2022-09-02T00:34:00.639Z,18.94
2022-09-02T00:35:00.625Z,18.95
2022-09-02T00:36:00.611Z,18.95
2022-09-02T00:37:00.605Z,18.95
2022-09-02T00:38:00.584Z,18.95
2022-09-02T00:39:00.579Z,18.95
2022-09-02T00:40:00.559Z,18.94
2022-09-02T00:41:00.547Z,18.94
2022-09-02T00:42:00.534Z,18.95
2022-09-02T00:43:00.521Z,18.95
2022-09-02T00:44:00.513Z,18.95
2022-09-02T00:45:00.495Z,18.92
2022-09-02T00:46:00.552Z,18.94
2022-09-02T00:47:00.466Z,18.92
2022-09-02T00:48:00.456Z,18.92
2022-09-02T00:49:00.461Z,18.94
2022-09-02T00:50:00.426Z,18.92
2022-09-02T00:51:00.414Z,18.94
2022-09-02T00:52:00.400Z,18.92
2022-09-02T00:53:00.388Z,18.91
2022-09-02T00:54:00.374Z,18.92
2022-09-02T00:55:00.363Z,18.92
2022-09-02T00:56:00.348Z,18.92
2022-09-02T00:57:00.337Z,18.91
2022-09-02T00:58:00.321Z,18.92
2022-09-02T00:59:00.308Z,18.92
2022-09-02T01:00:00.294Z,18.91
2022-09-02T01:01:00.423Z,18.92
2022-09-02T01:02:00.504Z,18.90
2022-09-02T01:03:00.276Z,18.91
2022-09-02T01:04:00.241Z,18.90
2022-09-02T01:05:00.231Z,18.90
2022-09-02T01:06:00.215Z,18.90
2022-09-02T01:07:00.204Z,18.90
2022-09-02T01:08:00.191Z,18.87
2022-09-02T01:09:00.179Z,18.87
2022-09-02T01:10:00.169Z,18.90
2022-09-02T01:11:00.152Z,18.90
2022-09-02T01:12:00.138Z,18.87
2022-09-02T01:13:00.130Z,18.86
2022-09-02T01:14:00.114Z,18.87
2022-09-02T01:15:00.110Z,18.86
2022-09-02T01:16:00.214Z,18.86
2022-09-02T01:17:00.085Z,18.86
2022-09-02T01:18:00.074Z,18.87
2022-09-02T01:19:00.068Z,18.86
2022-09-02T01:20:00.039Z,18.86
2022-09-02T01:21:00.025Z,18.86
2022-09-02T01:22:00.012Z,18.86
2022-09-02T01:22:59.999Z,18.86
2022-09-02T01:23:59.985Z,18.86
2022-09-02T01:24:59.976Z,18.86
2022-09-02T01:25:59.959Z,18.84
2022-09-02T01:26:59.947Z,18.84
2022-09-02T01:27:59.932Z,18.84
2022-09-02T01:28:59.921Z,18.84
2022-09-02T01:29:59.911Z,18.86
2022-09-02T01:30:59.896Z,18.84
2022-09-02T01:31:59.997Z,18.86
2022-09-02T01:32:59.870Z,18.86
2022-09-02T01:33:59.860Z,18.84
2022-09-02T01:34:59.846Z,18.84
2022-09-02T01:35:59.830Z,18.83
2022-09-02T01:36:59.821Z,18.84
2022-09-02T01:37:59.807Z,18.82
2022-09-02T01:38:59.794Z,18.83
2022-09-02T01:39:59.786Z,18.83
2022-09-02T01:40:59.769Z,18.83
2022-09-02T01:41:59.755Z,18.83
2022-09-02T01:42:59.744Z,18.82
2022-09-02T01:43:59.730Z,18.82
2022-09-02T01:44:59.719Z,18.83
2022-09-02T01:45:59.702Z,18.83
2022-09-02T01:46:59.761Z,18.82
2022-09-02T01:47:59.677Z,18.80
2022-09-02T01:48:59.667Z,18.80
2022-09-02T01:49:59.655Z,18.80
2022-09-02T01:50:59.641Z,18.82
2022-09-02T01:51:59.623Z,18.79
2022-09-02T01:52:59.613Z,18.80
2022-09-02T01:53:59.597Z,18.80
2022-09-02T01:54:59.586Z,18.77
2022-09-02T01:55:59.570Z,18.80
2022-09-02T01:56:59.560Z,18.82
2022-09-02T01:57:59.545Z,18.80
2022-09-02T01:58:59.534Z,18.79
2022-09-02T01:59:59.521Z,18.80
2022-09-02T02:01:05.578Z,18.80
2022-09-02T02:01:59.544Z,18.79
2022-09-02T02:02:59.483Z,18.77
2022-09-02T02:03:59.473Z,18.77
2022-09-02T02:04:59.458Z,18.77
2022-09-02T02:05:59.443Z,18.77
2022-09-02T02:06:59.432Z,18.79
2022-09-02T02:07:59.420Z,18.77
2022-09-02T02:08:59.408Z,18.77
2022-09-02T02:09:59.395Z,18.77
2022-09-02T02:10:59.382Z,18.77
2022-09-02T02:11:59.371Z,18.77
2022-09-02T02:12:59.358Z,18.76
2022-09-02T02:13:59.342Z,18.77
2022-09-02T02:14:59.332Z,18.76
2022-09-02T02:15:59.428Z,18.76
2022-09-02T02:16:59.306Z,18.77
2022-09-02T02:17:59.292Z,18.76
2022-09-02T02:18:59.284Z,18.76
2022-09-02T02:19:59.268Z,18.76
2022-09-02T02:20:59.258Z,18.74
2022-09-02T02:21:59.243Z,18.77
2022-09-02T02:22:59.231Z,18.74
2022-09-02T02:23:59.217Z,18.76
2022-09-02T02:24:59.205Z,18.77
2022-09-02T02:25:59.191Z,18.76
2022-09-02T02:26:59.178Z,18.74
2022-09-02T02:27:59.164Z,18.74
2022-09-02T02:28:59.152Z,18.73
2022-09-02T02:29:59.139Z,18.74
2022-09-02T02:30:59.177Z,18.73
2022-09-02T02:31:59.113Z,18.73
2022-09-02T02:32:59.103Z,18.73
2022-09-02T02:33:59.088Z,18.74
2022-09-02T02:34:59.080Z,18.73
2022-09-02T02:35:59.062Z,18.73
2022-09-02T02:36:59.052Z,18.73
2022-09-02T02:37:59.037Z,18.73
2022-09-02T02:38:59.027Z,18.74
2022-09-02T02:39:59.013Z,18.73
2022-09-02T02:40:59.001Z,18.72
2022-09-02T02:41:58.987Z,18.73
2022-09-02T02:42:58.975Z,18.74
2022-09-02T02:43:58.962Z,18.73
2022-09-02T02:44:58.951Z,18.73
2022-09-02T02:45:58.937Z,18.72
2022-09-02T02:46:58.983Z,18.73
2022-09-02T02:47:58.910Z,18.72
2022-09-02T02:48:58.899Z,18.73
2022-09-02T02:49:58.884Z,18.70
2022-09-02T02:50:58.873Z,18.72
2022-09-02T02:51:58.858Z,18.70
2022-09-02T02:52:58.846Z,18.72
2022-09-02T02:53:59.165Z,18.70
2022-09-02T02:54:58.822Z,18.70
2022-09-02T02:55:58.810Z,18.70
2022-09-02T02:56:58.798Z,18.68
2022-09-02T02:57:58.784Z,18.70
2022-09-02T02:58:58.771Z,18.68
2022-09-02T02:59:58.760Z,18.70
2022-09-02T03:00:58.744Z,18.70
2022-09-02T03:01:58.883Z,18.67
2022-09-02T03:02:58.842Z,18.70
2022-09-02T03:03:58.709Z,18.68
2022-09-02T03:04:58.692Z,18.70
2022-09-02T03:05:58.682Z,18.68
2022-09-02T03:06:58.670Z,18.68
2022-09-02T03:07:58.656Z,18.68
2022-09-02T03:08:58.642Z,18.67
2022-09-02T03:09:58.632Z,18.67
2022-09-02T03:10:58.617Z,18.67
2022-09-02T03:11:58.605Z,18.67
2022-09-02T03:12:58.590Z,18.67
2022-09-02T03:13:58.579Z,18.67
2022-09-02T03:14:58.569Z,18.67
2022-09-02T03:15:58.638Z,18.65
2022-09-02T03:16:58.540Z,18.65
2022-09-02T03:17:58.528Z,18.65
2022-09-02T03:18:58.515Z,18.65
2022-09-02T03:19:58.507Z,18.65
2022-09-02T03:20:58.490Z,18.67
2022-09-02T03:21:58.479Z,18.64
2022-09-02T03:22:58.464Z,18.65
2022-09-02T03:23:58.451Z,18.65
2022-09-02T03:24:58.437Z,18.67
2022-09-02T03:25:58.428Z,18.65
2022-09-02T03:26:58.411Z,18.65
2022-09-02T03:27:58.399Z,18.64
2022-09-02T03:28:58.384Z,18.65
2022-09-02T03:29:58.374Z,18.64
2022-09-02T03:30:58.463Z,18.64
2022-09-02T03:31:58.353Z,18.64
2022-09-02T03:33:01.807Z,18.64
2022-09-02T03:33:58.334Z,18.64
2022-09-02T03:34:58.315Z,18.62
2022-09-02T03:35:58.299Z,18.62
2022-09-02T03:36:58.287Z,18.62
2022-09-02T03:37:58.276Z,18.61
2022-09-02T03:38:58.261Z,18.61
2022-09-02T03:39:58.248Z,18.62
2022-09-02T03:40:58.232Z,18.62
2022-09-02T03:41:58.222Z,18.61
2022-09-02T03:43:00.480Z,18.61
2022-09-02T03:43:58.197Z,18.61
2022-09-02T03:44:58.181Z,18.61
2022-09-02T03:45:58.200Z,18.61
2022-09-02T03:46:58.156Z,18.61
2022-09-02T03:47:58.144Z,18.61
2022-09-02T03:48:58.130Z,18.61
2022-09-02T03:49:58.120Z,18.61
2022-09-02T03:50:58.105Z,18.59
2022-09-02T03:51:58.095Z,18.61
2022-09-02T03:52:58.080Z,18.59
2022-09-02T03:53:58.069Z,18.59
2022-09-02T03:54:58.054Z,18.61
2022-09-02T03:55:58.044Z,18.59
2022-09-02T03:56:58.031Z,18.59
2022-09-02T03:57:58.020Z,18.59
2022-09-02T03:58:58.004Z,18.59
2022-09-02T03:59:57.993Z,18.58
2022-09-02T04:00:57.978Z,18.59
2022-09-02T04:01:58.142Z,18.61
2022-09-02T04:02:57.990Z,18.58
2022-09-02T04:03:57.943Z,18.58
2022-09-02T04:04:57.927Z,18.59
2022-09-02T04:05:57.916Z,18.58
2022-09-02T04:06:57.903Z,18.58
2022-09-02T04:07:57.892Z,18.58
2022-09-02T04:08:57.877Z,18.58
2022-09-02T04:09:57.867Z,18.58
2022-09-02T04:10:57.855Z,18.58
2022-09-02T04:11:57.839Z,18.57
2022-09-02T04:12:57.827Z,18.57
2022-09-02T04:13:57.814Z,18.57
2022-09-02T04:14:57.832Z,18.58
2022-09-02T04:16:01.706Z,18.58
2022-09-02T04:16:57.776Z,18.57
2022-09-02T04:17:57.763Z,18.55
2022-09-02T04:18:57.751Z,18.55
2022-09-02T04:19:57.738Z,18.55
2022-09-02T04:20:57.725Z,18.57
2022-09-02T04:21:57.714Z,18.55
2022-09-02T04:22:57.697Z,18.55
2022-09-02T04:23:57.689Z,18.55
2022-09-02T04:24:57.672Z,18.55
2022-09-02T04:25:57.660Z,18.55
2022-09-02T04:27:00.696Z,18.55
2022-09-02T04:27:58.674Z,18.55
2022-09-02T04:28:57.621Z,18.55
2022-09-02T04:29:57.611Z,18.55
2022-09-02T04:30:57.632Z,18.55
2022-09-02T04:31:57.585Z,18.57
2022-09-02T04:32:57.571Z,18.55
2022-09-02T04:33:57.560Z,18.52
2022-09-02T04:34:57.547Z,18.52
2022-09-02T04:35:57.534Z,18.54
2022-09-02T04:36:57.520Z,18.54
2022-09-02T04:37:57.509Z,18.54
2022-09-02T04:38:57.494Z,18.54
2022-09-02T04:39:57.485Z,18.54
2022-09-02T04:40:57.470Z,18.52
2022-09-02T04:41:57.459Z,18.54
2022-09-02T04:42:57.445Z,18.54
2022-09-02T04:43:57.433Z,18.54
2022-09-02T04:44:57.418Z,18.52
2022-09-02T04:45:57.440Z,18.52
2022-09-02T04:46:57.393Z,18.52
2022-09-02T04:47:57.384Z,18.54
2022-09-02T04:48:57.368Z,18.54
2022-09-02T04:49:57.356Z,18.55
2022-09-02T04:50:57.343Z,18.54
2022-09-02T04:51:57.339Z,18.54
2022-09-02T04:52:57.319Z,18.55
2022-09-02T04:53:57.307Z,18.54
2022-09-02T04:54:57.293Z,18.55
2022-09-02T04:55:58.237Z,18.57
2022-09-02T04:56:57.267Z,18.58
2022-09-02T04:57:57.256Z,18.58
2022-09-02T04:58:57.241Z,18.59
2022-09-02T04:59:57.234Z,18.61
2022-09-02T05:00:57.216Z,18.61
2022-09-02T05:01:57.333Z,18.61
2022-09-02T05:02:57.318Z,18.61
2022-09-02T05:03:57.180Z,18.61
2022-09-02T05:04:57.167Z,18.62
2022-09-02T05:05:57.156Z,18.61
2022-09-02T05:06:57.140Z,18.61
2022-09-02T05:07:57.129Z,18.59
2022-09-02T05:08:57.115Z,18.61
2022-09-02T05:09:57.104Z,18.59
2022-09-02T05:10:57.090Z,18.58
2022-09-02T05:11:57.086Z,18.59
2022-09-02T05:12:57.065Z,18.58
2022-09-02T05:13:57.054Z,18.57
2022-09-02T05:14:57.051Z,18.59
2022-09-02T05:15:57.160Z,18.57
2022-09-02T05:16:57.014Z,18.58
2022-09-02T05:17:57.003Z,18.57
2022-09-02T05:18:56.992Z,18.58
2022-09-02T05:19:56.977Z,18.58
2022-09-02T05:20:56.964Z,18.58
2022-09-02T05:21:56.952Z,18.58
2022-09-02T05:22:56.940Z,18.58
2022-09-02T05:23:56.927Z,18.59
2022-09-02T05:24:56.914Z,18.59
2022-09-02T05:25:56.902Z,18.61
2022-09-02T05:26:56.909Z,18.61
2022-09-02T05:27:56.877Z,18.61
2022-09-02T05:28:56.862Z,18.64
2022-09-02T05:29:56.851Z,18.62
2022-09-02T05:30:56.886Z,18.64
2022-09-02T05:31:56.827Z,18.64
2022-09-02T05:32:56.811Z,18.65
2022-09-02T05:33:56.801Z,18.67
2022-09-02T05:34:56.785Z,18.65
2022-09-02T05:35:56.776Z,18.65
2022-09-02T05:36:56.761Z,18.67
2022-09-02T05:38:00.764Z,18.68
2022-09-02T05:38:56.736Z,18.68
2022-09-02T05:39:56.724Z,18.68
2022-09-02T05:40:56.801Z,18.68
2022-09-02T05:41:56.699Z,18.68
2022-09-02T05:42:56.685Z,18.68
2022-09-02T05:43:56.673Z,18.70
2022-09-02T05:44:56.659Z,18.70
2022-09-02T05:45:56.712Z,18.72
2022-09-02T05:46:56.633Z,18.73
2022-09-02T05:47:56.623Z,18.72
2022-09-02T05:48:56.609Z,18.74
2022-09-02T05:49:56.597Z,18.73
2022-09-02T05:50:57.417Z,18.74
2022-09-02T05:51:56.571Z,18.74
2022-09-02T05:52:56.560Z,18.76
2022-09-02T05:53:56.546Z,18.76
2022-09-02T05:54:56.531Z,18.76
2022-09-02T05:55:56.522Z,18.77
2022-09-02T05:56:56.506Z,18.77
2022-09-02T05:57:56.495Z,18.76
2022-09-02T05:58:56.480Z,18.79
2022-09-02T05:59:56.468Z,18.77
2022-09-02T06:00:56.453Z,18.79
2022-09-02T06:01:56.520Z,18.77
2022-09-02T06:02:56.462Z,18.80
2022-09-02T06:03:56.419Z,18.79
2022-09-02T06:04:56.402Z,18.80
2022-09-02T06:05:56.392Z,18.80
2022-09-02T06:06:56.377Z,18.80
2022-09-02T06:07:56.367Z,18.82
2022-09-02T06:08:56.352Z,18.82
2022-09-02T06:09:56.343Z,18.80
2022-09-02T06:10:56.327Z,18.82
2022-09-02T06:11:56.315Z,18.82
2022-09-02T06:12:56.299Z,18.83
2022-09-02T06:13:56.287Z,18.83
2022-09-02T06:14:56.276Z,18.82
2022-09-02T06:15:56.299Z,18.80
2022-09-02T06:16:56.248Z,18.82
2022-09-02T06:17:56.239Z,18.82
2022-09-02T06:18:56.223Z,18.82
2022-09-02T06:19:56.213Z,18.80
2022-09-02T06:20:56.199Z,18.80
2022-09-02T06:21:56.188Z,18.82
2022-09-02T06:22:56.172Z,18.80
2022-09-02T06:23:56.162Z,18.80
2022-09-02T06:24:56.148Z,18.79
2022-09-02T06:25:56.134Z,18.80
2022-09-02T06:26:56.123Z,18.79
2022-09-02T06:27:56.113Z,18.79
2022-09-02T06:28:56.097Z,18.80
2022-09-02T06:29:56.086Z,18.80
2022-09-02T06:30:56.102Z,18.80
2022-09-02T06:31:56.063Z,18.80
2022-09-02T06:32:56.044Z,18.80
2022-09-02T06:33:56.033Z,18.79
2022-09-02T06:34:56.019Z,18.80
2022-09-02T06:35:56.009Z,18.82
2022-09-02T06:36:55.994Z,18.80
2022-09-02T06:37:55.983Z,18.79
2022-09-02T06:38:55.968Z,18.80
2022-09-02T06:39:56.054Z,18.80
2022-09-02T06:40:55.943Z,18.79
2022-09-02T06:41:55.965Z,18.80
2022-09-02T06:42:55.916Z,18.80
2022-09-02T06:43:55.903Z,18.80
2022-09-02T06:44:55.891Z,18.80
2022-09-02T06:45:55.966Z,18.80
2022-09-02T06:46:55.867Z,18.80
2022-09-02T06:47:55.852Z,18.82
2022-09-02T06:48:55.837Z,18.80
2022-09-02T06:49:55.827Z,18.82
2022-09-02T06:50:55.813Z,18.80
2022-09-02T06:51:55.800Z,18.80
2022-09-02T06:52:55.785Z,18.82
2022-09-02T06:53:55.775Z,18.82
2022-09-02T06:54:55.759Z,18.82
2022-09-02T06:55:55.748Z,18.80
2022-09-02T06:56:55.733Z,18.80
2022-09-02T06:57:55.725Z,18.82
2022-09-02T06:58:55.709Z,18.82
2022-09-02T06:59:59.305Z,18.82
2022-09-02T07:00:56.820Z,18.83
2022-09-02T07:01:55.898Z,18.80
2022-09-02T07:02:55.667Z,18.80
2022-09-02T07:03:55.647Z,18.77
2022-09-02T07:04:57.579Z,18.76
2022-09-02T07:05:55.621Z,18.73
2022-09-02T07:06:55.784Z,18.73
2022-09-02T07:07:55.597Z,18.73
2022-09-02T07:08:55.584Z,18.68
2022-09-02T07:09:55.626Z,18.70
2022-09-02T07:10:55.559Z,18.72
2022-09-02T07:11:55.545Z,18.73
2022-09-02T07:12:55.534Z,18.76
2022-09-02T07:13:55.518Z,18.74
2022-09-02T07:14:55.509Z,18.76
2022-09-02T07:15:55.504Z,18.74
2022-09-02T07:16:55.512Z,18.77
2022-09-02T07:17:55.468Z,18.77
2022-09-02T07:18:55.457Z,18.79
2022-09-02T07:19:55.444Z,18.82
2022-09-02T07:20:55.432Z,18.83
2022-09-02T07:21:55.418Z,18.84
2022-09-02T07:22:55.408Z,18.86
2022-09-02T07:23:55.391Z,18.86
2022-09-02T07:24:55.380Z,18.90
2022-09-02T07:25:55.367Z,18.90
2022-09-02T07:26:56.001Z,18.90
2022-09-02T07:27:55.341Z,18.92
2022-09-02T07:28:55.330Z,18.92
2022-09-02T07:29:55.319Z,18.92
2022-09-02T07:30:59.527Z,18.92
2022-09-02T07:31:55.289Z,18.94
2022-09-02T07:32:55.281Z,18.92
2022-09-02T07:33:55.266Z,18.94
2022-09-02T07:34:55.254Z,18.94
2022-09-02T07:35:55.240Z,18.95
2022-09-02T07:36:57.858Z,18.95
2022-09-02T07:37:56.261Z,18.95
2022-09-02T07:38:55.202Z,18.95
2022-09-02T07:39:55.187Z,18.95
2022-09-02T07:40:56.889Z,18.95
2022-09-02T07:41:55.163Z,18.95
2022-09-02T07:42:55.153Z,18.95
2022-09-02T07:43:59.415Z,18.97
2022-09-02T07:44:55.126Z,18.95
2022-09-02T07:45:55.165Z,18.97
2022-09-02T07:46:55.101Z,18.95
2022-09-02T07:47:55.092Z,18.97
2022-09-02T07:48:55.078Z,18.97
2022-09-02T07:50:56.088Z,18.98
2022-09-02T07:51:55.085Z,18.97
2022-09-02T07:52:55.031Z,18.98
2022-09-02T07:53:55.010Z,18.98
2022-09-02T07:54:54.999Z,18.98
2022-09-02T07:55:54.994Z,18.98
2022-09-02T07:56:54.975Z,18.99
2022-09-02T07:57:55.403Z,19.01
2022-09-02T07:58:54.948Z,19.01
2022-09-02T07:59:54.934Z,19.01
2022-09-02T08:00:54.952Z,19.01
2022-09-02T08:01:54.917Z,19.01
2022-09-02T08:02:55.016Z,19.01
2022-09-02T08:03:54.884Z,19.01
2022-09-02T08:04:54.871Z,19.01
2022-09-02T08:05:54.853Z,19.01
2022-09-02T08:06:54.842Z,18.99
2022-09-02T08:07:54.828Z,18.99
2022-09-02T08:08:54.817Z,18.99
2022-09-02T08:09:54.801Z,19.01
2022-09-02T08:10:54.827Z,19.02
2022-09-02T08:11:54.776Z,19.02
2022-09-02T08:12:54.762Z,19.02
2022-09-02T08:13:54.749Z,19.02
2022-09-02T08:14:54.735Z,19.02
2022-09-02T08:15:54.722Z,19.02
2022-09-02T08:16:54.763Z,19.01
2022-09-02T08:17:54.693Z,19.01
2022-09-02T08:18:54.681Z,19.01
2022-09-02T08:19:54.666Z,19.02
2022-09-02T08:20:54.655Z,19.01
2022-09-02T08:21:54.639Z,19.01
2022-09-02T08:23:05.142Z,19.02
2022-09-02T08:23:55.654Z,19.02
2022-09-02T08:24:54.601Z,19.04
2022-09-02T08:25:54.590Z,19.02
2022-09-02T08:26:54.575Z,19.04
2022-09-02T08:28:54.546Z,19.04
2022-09-02T08:29:54.531Z,19.04
2022-09-02T08:30:54.520Z,19.05
2022-09-02T08:31:54.530Z,19.04
2022-09-02T08:32:54.498Z,19.07
2022-09-02T08:33:54.478Z,19.07
2022-09-02T08:34:54.468Z,19.05
2022-09-02T08:35:54.453Z,19.07
2022-09-02T08:36:56.510Z,19.09
2022-09-02T08:37:54.425Z,19.09
2022-09-02T08:38:54.415Z,19.09
2022-09-02T08:39:54.399Z,19.10
2022-09-02T08:40:54.453Z,19.10
2022-09-02T08:41:54.424Z,19.10
2022-09-02T08:42:54.360Z,19.09
2022-09-02T08:43:54.344Z,19.10
2022-09-02T08:44:54.333Z,19.10
2022-09-02T08:45:54.431Z,19.13
2022-09-02T08:46:54.311Z,19.12
2022-09-02T08:47:54.318Z,19.10
2022-09-02T08:48:54.279Z,19.10
2022-09-02T08:49:54.265Z,19.12
2022-09-02T08:50:54.260Z,19.13
2022-09-02T08:51:54.239Z,19.13
2022-09-02T08:52:54.229Z,19.12
2022-09-02T08:53:54.218Z,19.13
2022-09-02T08:54:54.204Z,19.14
2022-09-02T08:55:54.190Z,19.13
2022-09-02T08:56:54.178Z,19.14
2022-09-02T08:57:54.198Z,19.14
2022-09-02T08:58:56.517Z,19.14
2022-09-02T08:59:54.138Z,19.14
2022-09-02T09:00:54.176Z,19.16
2022-09-02T09:01:54.117Z,19.14
2022-09-02T09:02:54.096Z,19.17
2022-09-02T09:03:54.082Z,19.14
2022-09-02T09:04:54.072Z,19.16
2022-09-02T09:05:54.055Z,19.16
2022-09-02T09:06:54.047Z,19.17
2022-09-02T09:07:54.032Z,19.16
2022-09-02T09:08:54.019Z,19.16
2022-09-02T09:09:54.005Z,19.17
2022-09-02T09:10:53.993Z,19.16
2022-09-02T09:11:53.977Z,19.16
2022-09-02T09:12:53.970Z,19.16
2022-09-02T09:13:53.952Z,19.17
2022-09-02T09:14:53.942Z,19.16
2022-09-02T09:15:53.926Z,19.17
2022-09-02T09:16:53.989Z,19.17
2022-09-02T09:17:53.903Z,19.19
2022-09-02T09:18:53.887Z,19.19
2022-09-02T09:19:53.875Z,19.17
2022-09-02T09:20:53.863Z,19.17
2022-09-02T09:21:53.849Z,19.17
2022-09-02T09:22:53.835Z,19.17
2022-09-02T09:23:53.829Z,19.19
2022-09-02T09:24:53.811Z,19.17
2022-09-02T09:25:53.797Z,19.14
2022-09-02T09:26:53.785Z,19.14
2022-09-02T09:27:53.770Z,19.12
2022-09-02T09:28:53.758Z,19.10
2022-09-02T09:29:53.742Z,19.10
2022-09-02T09:30:53.730Z,19.09
2022-09-02T09:31:53.786Z,19.12
2022-09-02T09:32:53.703Z,19.12
2022-09-02T09:33:53.689Z,19.12
2022-09-02T09:34:53.677Z,19.10
2022-09-02T09:35:53.661Z,19.10
2022-09-02T09:36:53.669Z,19.13
2022-09-02T09:37:53.636Z,19.13
2022-09-02T09:38:53.628Z,19.13
2022-09-02T09:39:53.612Z,19.12
2022-09-02T09:40:53.617Z,19.14
2022-09-02T09:41:53.590Z,19.13
2022-09-02T09:42:53.599Z,19.14
2022-09-02T09:43:53.562Z,19.12
2022-09-02T09:44:53.551Z,19.13
2022-09-02T09:45:53.593Z,19.13
2022-09-02T09:46:53.524Z,19.13
2022-09-02T09:47:58.560Z,19.14
2022-09-02T09:48:53.498Z,19.13
2022-09-02T09:49:53.485Z,19.16
2022-09-02T09:50:53.474Z,19.14
2022-09-02T09:51:53.459Z,19.17
2022-09-02T09:52:53.448Z,19.16
2022-09-02T09:53:53.434Z,19.16
2022-09-02T09:54:53.423Z,19.16
2022-09-02T09:55:53.408Z,19.16
2022-09-02T09:56:53.397Z,19.17
2022-09-02T09:57:53.383Z,19.19
2022-09-02T09:58:53.371Z,19.20
2022-09-02T09:59:53.357Z,19.20
2022-09-02T10:00:53.374Z,19.22
2022-09-02T10:01:53.407Z,19.23
2022-09-02T10:02:53.320Z,19.24
2022-09-02T10:03:53.306Z,19.28
2022-09-02T10:04:53.295Z,19.28
2022-09-02T10:05:53.282Z,19.30
2022-09-02T10:06:53.270Z,19.30
2022-09-02T10:07:53.257Z,19.31
2022-09-02T10:08:53.246Z,19.30
2022-09-02T10:09:53.231Z,19.27
2022-09-02T10:10:53.221Z,19.27
2022-09-02T10:11:53.204Z,19.28
2022-09-02T10:12:53.194Z,19.32
2022-09-02T10:13:53.198Z,19.34
2022-09-02T10:14:53.166Z,19.32
2022-09-02T10:15:53.150Z,19.32
2022-09-02T10:16:53.185Z,19.34
2022-09-02T10:17:53.124Z,19.35
2022-09-02T10:18:53.113Z,19.35
2022-09-02T10:19:53.100Z,19.35
2022-09-02T10:21:16.710Z,19.38
2022-09-02T10:21:54.109Z,19.38
2022-09-02T10:22:59.691Z,19.37
2022-09-02T10:23:54.083Z,19.41
2022-09-02T10:24:53.033Z,19.39
2022-09-02T10:25:53.022Z,19.39
2022-09-02T10:26:53.009Z,19.37
2022-09-02T10:27:52.998Z,19.37
2022-09-02T10:28:52.982Z,19.35
2022-09-02T10:29:52.967Z,19.35
2022-09-02T10:30:52.954Z,19.34
2022-09-02T10:31:52.997Z,19.37
2022-09-02T10:32:52.928Z,19.41
2022-09-02T10:33:52.914Z,19.39
2022-09-02T10:34:52.901Z,19.39
2022-09-02T10:35:52.887Z,19.38
2022-09-02T10:36:52.875Z,19.38
2022-09-02T10:37:52.860Z,19.37
2022-09-02T10:38:52.853Z,19.39
2022-09-02T10:39:52.834Z,19.42
2022-09-02T10:40:52.906Z,19.45
2022-09-02T10:41:52.809Z,19.46
2022-09-02T10:42:52.796Z,19.47
2022-09-02T10:43:57.208Z,19.46
2022-09-02T10:44:55.654Z,19.46
2022-09-02T10:45:52.756Z,19.42
2022-09-02T10:46:52.823Z,19.42
2022-09-02T10:48:52.719Z,19.42
2022-09-02T10:49:52.706Z,19.42
2022-09-02T10:50:52.696Z,19.45
2022-09-02T10:51:52.679Z,19.47
2022-09-02T10:52:52.668Z,19.47
2022-09-02T10:53:52.655Z,19.49
2022-09-02T10:54:52.651Z,19.50
2022-09-02T10:55:52.629Z,19.47
2022-09-02T10:56:52.618Z,19.47
2022-09-02T10:57:52.604Z,19.49
2022-09-02T10:58:52.629Z,19.50
2022-09-02T11:00:27.569Z,19.50
2022-09-02T11:01:27.518Z,19.47
2022-09-02T11:02:27.508Z,19.47
2022-09-02T11:04:36.549Z,19.47
2022-09-02T11:05:36.382Z,19.47
2022-09-02T11:06:58.593Z,19.49
2022-09-02T11:07:37.390Z,19.47
2022-09-02T11:08:36.336Z,19.49
2022-09-02T11:09:36.324Z,19.49
2022-09-02T11:10:36.309Z,19.49
2022-09-02T11:11:36.297Z,19.50
2022-09-02T11:12:36.280Z,19.52
2022-09-02T11:13:36.271Z,19.52
2022-09-02T11:14:36.253Z,19.54
2022-09-02T11:15:36.241Z,19.52
2022-09-02T11:17:36.213Z,19.53
2022-09-02T11:18:36.199Z,19.53
2022-09-02T11:19:36.188Z,19.54
2022-09-02T11:20:36.173Z,19.54
2022-09-02T11:21:36.162Z,19.54
2022-09-02T11:22:36.146Z,19.56
2022-09-02T11:23:36.136Z,19.54
2022-09-02T11:24:36.118Z,19.59
2022-09-02T11:25:36.106Z,19.59
2022-09-02T11:26:36.089Z,19.59
2022-09-02T11:27:42.495Z,19.59
2022-09-02T11:28:37.101Z,19.57
2022-09-02T11:29:36.050Z,19.59
2022-09-02T11:30:36.034Z,19.56
2022-09-02T11:31:39.005Z,19.54
2022-09-02T11:32:36.005Z,19.52
2022-09-02T11:33:35.994Z,19.52
2022-09-02T11:34:36.130Z,19.52
2022-09-02T11:35:35.968Z,19.50
2022-09-02T11:36:35.952Z,19.52
2022-09-02T11:37:35.940Z,19.56
2022-09-02T11:38:35.923Z,19.56
2022-09-02T11:39:54.019Z,19.56
2022-09-02T11:40:37.069Z,19.60
2022-09-02T11:41:37.379Z,19.59
2022-09-02T11:42:35.871Z,19.57
2022-09-02T11:43:35.858Z,19.56
2022-09-02T11:44:35.841Z,19.54
2022-09-02T11:45:35.871Z,19.54
2022-09-02T11:46:35.911Z,19.54
2022-09-02T11:47:35.802Z,19.54
2022-09-02T11:48:35.786Z,19.54
2022-09-02T11:49:35.777Z,19.54
2022-09-02T11:50:39.231Z,19.56
2022-09-02T11:51:35.748Z,19.57
2022-09-02T11:52:35.733Z,19.59
2022-09-02T11:53:35.720Z,19.59
2022-09-02T11:54:35.707Z,19.59
2022-09-02T11:55:35.693Z,19.59
2022-09-02T11:56:35.679Z,19.64
2022-09-02T11:57:35.664Z,19.62
2022-09-02T11:58:35.664Z,19.64
2022-09-02T11:59:35.639Z,19.67
2022-09-02T12:00:35.627Z,19.69
2022-09-02T12:01:35.614Z,19.69
2022-09-02T12:02:35.597Z,19.75
2022-09-02T12:03:46.888Z,19.75
2022-09-02T12:05:36.900Z,19.72
2022-09-02T12:06:35.676Z,19.71
2022-09-02T12:07:35.531Z,19.69
2022-09-02T12:08:35.525Z,19.68
2022-09-02T12:09:35.597Z,19.68
2022-09-02T12:10:35.488Z,19.67
2022-09-02T12:11:35.477Z,19.67
2022-09-02T12:12:35.460Z,19.69
2022-09-02T12:13:35.450Z,19.71
2022-09-02T12:14:35.433Z,19.71
2022-09-02T12:15:35.421Z,19.75
2022-09-02T12:16:35.525Z,19.75
2022-09-02T12:17:35.393Z,19.75
2022-09-02T12:18:35.378Z,19.75
2022-09-02T12:19:35.367Z,19.75
2022-09-02T12:20:35.350Z,19.72
2022-09-02T12:21:35.338Z,19.72
2022-09-02T12:22:35.323Z,19.72
2022-09-02T12:23:35.312Z,19.71
2022-09-02T12:24:35.297Z,19.75
2022-09-02T12:25:35.282Z,19.72
2022-09-02T12:26:35.268Z,19.71
2022-09-02T12:27:35.255Z,19.71
2022-09-02T12:28:35.239Z,19.72
2022-09-02T12:29:35.230Z,19.72
2022-09-02T12:30:35.213Z,19.72
2022-09-02T12:31:35.243Z,19.76
2022-09-02T12:32:35.187Z,19.78
2022-09-02T12:33:35.183Z,19.78
2022-09-02T12:34:35.158Z,19.79
2022-09-02T12:35:35.292Z,19.80
2022-09-02T12:36:35.131Z,19.79
2022-09-02T12:37:35.122Z,19.80
2022-09-02T12:38:35.103Z,19.80
2022-09-02T12:39:35.090Z,19.84
2022-09-02T12:40:35.161Z,19.84
2022-09-02T12:41:35.063Z,19.87
2022-09-02T12:42:35.049Z,19.87
2022-09-02T12:43:35.037Z,19.88
2022-09-02T12:44:35.072Z,19.87
2022-09-02T12:45:35.010Z,19.87
2022-09-02T12:46:35.084Z,19.86
2022-09-02T12:47:34.983Z,19.86
2022-09-02T12:48:38.129Z,19.86
2022-09-02T12:49:34.981Z,19.86
2022-09-02T12:50:34.939Z,19.84
2022-09-02T12:51:34.927Z,19.84
2022-09-02T12:52:34.910Z,19.84
2022-09-02T12:53:34.899Z,19.84
2022-09-02T12:54:34.953Z,19.83
2022-09-02T12:55:34.877Z,19.86
2022-09-02T12:56:34.857Z,19.83
2022-09-02T12:57:34.845Z,19.80
2022-09-02T12:58:34.829Z,19.80